KCVO - Corvallis, OR
Updated: Sun, 19-Nov-2017 4:56am PST
Fog, Overcast
Fog, Overcast
 Wind from calm
Wind: Calm
Temperature: 34°F , 1°C
Dew Point: 34°F , 1°C
Humidity: 100%
Barometer: 30.13 inHg , 1020.3 hPa
Summary: Fog
Clouds: Overcast
Visibility: 1/4 mile , 2 km
Cloud details: Overcast 200 ft
2017/11/19 12:56 KCVO 191256Z AUTO 00000KT 1/4SM FG OVC002 01/01 A3013 RMK AO2 SLP206 T00060006 FZRANO RVRNO